sensor_id;sensor_type;location;lat;lon;timestamp;P1;durP1;ratioP1;P2;durP2;ratioP2
53287;SDS011;39172;45.550;12.072;2023-02-20T00:01:22;67.13;;;38.30;;
53287;SDS011;39172;45.550;12.072;2023-02-20T00:07:23;69.72;;;40.25;;
53287;SDS011;39172;45.550;12.072;2023-02-20T00:13:24;63.53;;;38.08;;
53287;SDS011;39172;45.550;12.072;2023-02-20T00:19:24;73.47;;;42.00;;
53287;SDS011;39172;45.550;12.072;2023-02-20T00:25:25;74.88;;;42.47;;
53287;SDS011;39172;45.550;12.072;2023-02-20T00:31:26;70.28;;;41.05;;
53287;SDS011;39172;45.550;12.072;2023-02-20T00:37:27;58.78;;;35.75;;
53287;SDS011;39172;45.550;12.072;2023-02-20T00:43:28;50.78;;;31.75;;
53287;SDS011;39172;45.550;12.072;2023-02-20T00:49:29;76.00;;;44.22;;
53287;SDS011;39172;45.550;12.072;2023-02-20T00:55:42;70.75;;;41.95;;
53287;SDS011;39172;45.550;12.072;2023-02-20T01:01:44;63.05;;;37.15;;
53287;SDS011;39172;45.550;12.072;2023-02-20T01:07:45;62.38;;;38.28;;
53287;SDS011;39172;45.550;12.072;2023-02-20T01:13:46;58.95;;;37.28;;
53287;SDS011;39172;45.550;12.072;2023-02-20T01:19:47;51.13;;;33.15;;
53287;SDS011;39172;45.550;12.072;2023-02-20T01:25:48;52.05;;;33.42;;
53287;SDS011;39172;45.550;12.072;2023-02-20T01:31:49;50.33;;;32.95;;
53287;SDS011;39172;45.550;12.072;2023-02-20T01:37:51;47.88;;;30.65;;
53287;SDS011;39172;45.550;12.072;2023-02-20T01:43:51;49.20;;;31.67;;
53287;SDS011;39172;45.550;12.072;2023-02-20T01:49:56;41.70;;;27.95;;
53287;SDS011;39172;45.550;12.072;2023-02-20T01:55:59;39.92;;;26.42;;
53287;SDS011;39172;45.550;12.072;2023-02-20T02:02:02;41.28;;;27.50;;
53287;SDS011;39172;45.550;12.072;2023-02-20T02:08:03;43.97;;;27.80;;
53287;SDS011;39172;45.550;12.072;2023-02-20T02:14:06;50.25;;;30.63;;
53287;SDS011;39172;45.550;12.072;2023-02-20T02:39:01;42.75;;;25.75;;
53287;SDS011;39172;45.550;12.072;2023-02-20T02:51:10;45.47;;;29.25;;
53287;SDS011;39172;45.550;12.072;2023-02-20T02:57:19;41.72;;;25.08;;
53287;SDS011;39172;45.550;12.072;2023-02-20T03:03:23;50.78;;;29.10;;
53287;SDS011;39172;45.550;12.072;2023-02-20T03:09:29;57.65;;;33.80;;
53287;SDS011;39172;45.550;12.072;2023-02-20T03:15:34;51.88;;;31.65;;
53287;SDS011;39172;45.550;12.072;2023-02-20T03:21:39;50.28;;;29.67;;
53287;SDS011;39172;45.550;12.072;2023-02-20T03:27:46;41.88;;;24.88;;
53287;SDS011;39172;45.550;12.072;2023-02-20T03:33:53;40.15;;;23.70;;
53287;SDS011;39172;45.550;12.072;2023-02-20T03:40:13;35.42;;;21.25;;
53287;SDS011;39172;45.550;12.072;2023-02-20T03:46:35;37.88;;;21.98;;
53287;SDS011;39172;45.550;12.072;2023-02-20T03:52:37;36.70;;;22.05;;
53287;SDS011;39172;45.550;12.072;2023-02-20T03:58:39;34.78;;;20.40;;
53287;SDS011;39172;45.550;12.072;2023-02-20T04:04:43;46.72;;;28.58;;
53287;SDS011;39172;45.550;12.072;2023-02-20T04:10:52;58.50;;;34.83;;
53287;SDS011;39172;45.550;12.072;2023-02-20T04:16:55;65.55;;;35.45;;
53287;SDS011;39172;45.550;12.072;2023-02-20T04:23:04;49.47;;;28.48;;
53287;SDS011;39172;45.550;12.072;2023-02-20T04:29:06;39.90;;;24.38;;
53287;SDS011;39172;45.550;12.072;2023-02-20T04:35:08;40.20;;;22.52;;
53287;SDS011;39172;45.550;12.072;2023-02-20T04:41:10;59.42;;;32.53;;
53287;SDS011;39172;45.550;12.072;2023-02-20T04:47:13;51.55;;;29.88;;
53287;SDS011;39172;45.550;12.072;2023-02-20T04:53:14;55.15;;;30.83;;
53287;SDS011;39172;45.550;12.072;2023-02-20T04:59:15;50.28;;;27.58;;
53287;SDS011;39172;45.550;12.072;2023-02-20T05:05:26;42.67;;;23.90;;
53287;SDS011;39172;45.550;12.072;2023-02-20T05:11:28;41.97;;;23.80;;
53287;SDS011;39172;45.550;12.072;2023-02-20T05:17:28;41.58;;;26.00;;
53287;SDS011;39172;45.550;12.072;2023-02-20T05:23:29;51.55;;;29.58;;
53287;SDS011;39172;45.550;12.072;2023-02-20T05:29:30;46.58;;;27.20;;
53287;SDS011;39172;45.550;12.072;2023-02-20T05:35:31;43.88;;;25.42;;
53287;SDS011;39172;45.550;12.072;2023-02-20T05:41:32;50.42;;;28.35;;
53287;SDS011;39172;45.550;12.072;2023-02-20T05:47:35;44.00;;;26.15;;
53287;SDS011;39172;45.550;12.072;2023-02-20T05:53:36;37.95;;;22.58;;
53287;SDS011;39172;45.550;12.072;2023-02-20T05:59:37;37.90;;;21.80;;
53287;SDS011;39172;45.550;12.072;2023-02-20T06:05:38;37.03;;;21.10;;
53287;SDS011;39172;45.550;12.072;2023-02-20T06:11:39;34.13;;;20.88;;
53287;SDS011;39172;45.550;12.072;2023-02-20T06:17:40;33.03;;;19.15;;
53287;SDS011;39172;45.550;12.072;2023-02-20T06:23:42;30.45;;;19.05;;
53287;SDS011;39172;45.550;12.072;2023-02-20T06:29:45;41.33;;;24.98;;
53287;SDS011;39172;45.550;12.072;2023-02-20T06:35:46;36.25;;;22.05;;
53287;SDS011;39172;45.550;12.072;2023-02-20T06:41:47;60.75;;;33.72;;
53287;SDS011;39172;45.550;12.072;2023-02-20T06:47:48;53.45;;;30.67;;
53287;SDS011;39172;45.550;12.072;2023-02-20T06:53:49;39.30;;;25.30;;
53287;SDS011;39172;45.550;12.072;2023-02-20T06:59:50;55.05;;;32.03;;
53287;SDS011;39172;45.550;12.072;2023-02-20T07:05:51;62.63;;;35.58;;
53287;SDS011;39172;45.550;12.072;2023-02-20T07:11:52;66.80;;;36.83;;
53287;SDS011;39172;45.550;12.072;2023-02-20T07:17:54;61.10;;;35.00;;
53287;SDS011;39172;45.550;12.072;2023-02-20T07:23:55;58.05;;;32.85;;
53287;SDS011;39172;45.550;12.072;2023-02-20T07:29:55;56.50;;;31.40;;
53287;SDS011;39172;45.550;12.072;2023-02-20T07:35:56;54.30;;;29.45;;
53287;SDS011;39172;45.550;12.072;2023-02-20T07:41:58;48.45;;;27.02;;
53287;SDS011;39172;45.550;12.072;2023-02-20T07:48:18;47.22;;;26.45;;
53287;SDS011;39172;45.550;12.072;2023-02-20T07:54:19;40.88;;;22.90;;
53287;SDS011;39172;45.550;12.072;2023-02-20T08:00:20;38.70;;;21.13;;
53287;SDS011;39172;45.550;12.072;2023-02-20T08:06:21;35.80;;;20.73;;
53287;SDS011;39172;45.550;12.072;2023-02-20T08:12:22;45.15;;;23.52;;
53287;SDS011;39172;45.550;12.072;2023-02-20T08:18:23;43.90;;;24.17;;
53287;SDS011;39172;45.550;12.072;2023-02-20T08:24:24;61.10;;;29.63;;
53287;SDS011;39172;45.550;12.072;2023-02-20T08:30:25;64.07;;;31.95;;
53287;SDS011;39172;45.550;12.072;2023-02-20T08:36:27;45.20;;;23.42;;
53287;SDS011;39172;45.550;12.072;2023-02-20T08:42:28;34.42;;;18.65;;
53287;SDS011;39172;45.550;12.072;2023-02-20T08:48:29;78.88;;;35.75;;
53287;SDS011;39172;45.550;12.072;2023-02-20T08:54:30;55.30;;;27.77;;
53287;SDS011;39172;45.550;12.072;2023-02-20T09:00:31;59.15;;;29.00;;
53287;SDS011;39172;45.550;12.072;2023-02-20T09:06:32;108.95;;;43.75;;
53287;SDS011;39172;45.550;12.072;2023-02-20T09:12:32;125.72;;;47.40;;
53287;SDS011;39172;45.550;12.072;2023-02-20T09:18:33;247.50;;;67.97;;
53287;SDS011;39172;45.550;12.072;2023-02-20T09:24:34;186.60;;;55.90;;
53287;SDS011;39172;45.550;12.072;2023-02-20T09:30:36;153.00;;;50.42;;
53287;SDS011;39172;45.550;12.072;2023-02-20T09:36:36;55.97;;;28.00;;
53287;SDS011;39172;45.550;12.072;2023-02-20T09:48:53;92.30;;;37.28;;
53287;SDS011;39172;45.550;12.072;2023-02-20T09:55:00;193.38;;;60.33;;
53287;SDS011;39172;45.550;12.072;2023-02-20T10:01:02;99.72;;;39.47;;
53287;SDS011;39172;45.550;12.072;2023-02-20T10:07:12;80.70;;;33.58;;
53287;SDS011;39172;45.550;12.072;2023-02-20T10:13:24;62.13;;;27.98;;
53287;SDS011;39172;45.550;12.072;2023-02-20T10:26:00;105.63;;;36.63;;
53287;SDS011;39172;45.550;12.072;2023-02-20T10:32:04;39.25;;;19.65;;
53287;SDS011;39172;45.550;12.072;2023-02-20T10:38:08;41.45;;;21.60;;
53287;SDS011;39172;45.550;12.072;2023-02-20T10:44:14;41.75;;;20.00;;
53287;SDS011;39172;45.550;12.072;2023-02-20T10:50:20;47.75;;;22.88;;
53287;SDS011;39172;45.550;12.072;2023-02-20T11:02:24;34.05;;;18.85;;
53287;SDS011;39172;45.550;12.072;2023-02-20T11:08:26;37.22;;;19.70;;
53287;SDS011;39172;45.550;12.072;2023-02-20T11:14:45;36.17;;;19.92;;
53287;SDS011;39172;45.550;12.072;2023-02-20T11:20:46;34.60;;;18.90;;
53287;SDS011;39172;45.550;12.072;2023-02-20T11:26:49;39.95;;;20.90;;
53287;SDS011;39172;45.550;12.072;2023-02-20T11:33:28;42.17;;;21.83;;
53287;SDS011;39172;45.550;12.072;2023-02-20T11:45:25;36.35;;;19.85;;
53287;SDS011;39172;45.550;12.072;2023-02-20T11:57:37;41.20;;;21.55;;
53287;SDS011;39172;45.550;12.072;2023-02-20T12:03:42;45.42;;;22.30;;
53287;SDS011;39172;45.550;12.072;2023-02-20T12:09:54;41.75;;;22.92;;
53287;SDS011;39172;45.550;12.072;2023-02-20T12:15:59;43.65;;;22.52;;
53287;SDS011;39172;45.550;12.072;2023-02-20T12:22:21;49.97;;;24.67;;
53287;SDS011;39172;45.550;12.072;2023-02-20T12:28:26;36.95;;;20.42;;
53287;SDS011;39172;45.550;12.072;2023-02-20T12:40:40;34.53;;;19.33;;
53287;SDS011;39172;45.550;12.072;2023-02-20T12:46:54;33.53;;;18.65;;
53287;SDS011;39172;45.550;12.072;2023-02-20T13:05:30;33.05;;;17.33;;
53287;SDS011;39172;45.550;12.072;2023-02-20T13:11:37;27.10;;;15.32;;
53287;SDS011;39172;45.550;12.072;2023-02-20T13:23:40;28.15;;;15.90;;
53287;SDS011;39172;45.550;12.072;2023-02-20T13:29:55;30.75;;;17.17;;
53287;SDS011;39172;45.550;12.072;2023-02-20T13:35:57;37.50;;;20.35;;
53287;SDS011;39172;45.550;12.072;2023-02-20T13:41:59;36.42;;;20.17;;
53287;SDS011;39172;45.550;12.072;2023-02-20T13:54:24;36.53;;;19.42;;
53287;SDS011;39172;45.550;12.072;2023-02-20T14:06:29;26.33;;;14.95;;
53287;SDS011;39172;45.550;12.072;2023-02-20T14:12:31;33.90;;;18.42;;
53287;SDS011;39172;45.550;12.072;2023-02-20T14:18:33;35.80;;;19.20;;
53287;SDS011;39172;45.550;12.072;2023-02-20T14:24:35;34.25;;;19.70;;
53287;SDS011;39172;45.550;12.072;2023-02-20T14:30:36;36.80;;;20.80;;
53287;SDS011;39172;45.550;12.072;2023-02-20T14:42:57;31.83;;;18.05;;
53287;SDS011;39172;45.550;12.072;2023-02-20T14:49:33;38.47;;;21.27;;
53287;SDS011;39172;45.550;12.072;2023-02-20T14:55:28;37.05;;;21.00;;
53287;SDS011;39172;45.550;12.072;2023-02-20T15:01:31;38.25;;;21.65;;
53287;SDS011;39172;45.550;12.072;2023-02-20T15:07:36;29.92;;;17.13;;
53287;SDS011;39172;45.550;12.072;2023-02-20T15:13:41;26.85;;;15.48;;
53287;SDS011;39172;45.550;12.072;2023-02-20T15:19:43;30.75;;;17.67;;
53287;SDS011;39172;45.550;12.072;2023-02-20T15:25:44;30.90;;;17.08;;
53287;SDS011;39172;45.550;12.072;2023-02-20T15:31:45;25.20;;;14.30;;
53287;SDS011;39172;45.550;12.072;2023-02-20T15:37:46;27.05;;;15.55;;
53287;SDS011;39172;45.550;12.072;2023-02-20T15:43:47;28.52;;;16.23;;
53287;SDS011;39172;45.550;12.072;2023-02-20T15:49:48;30.75;;;18.33;;
53287;SDS011;39172;45.550;12.072;2023-02-20T15:55:52;34.13;;;19.90;;
53287;SDS011;39172;45.550;12.072;2023-02-20T16:01:56;32.92;;;19.02;;
53287;SDS011;39172;45.550;12.072;2023-02-20T16:07:57;33.75;;;18.60;;
53287;SDS011;39172;45.550;12.072;2023-02-20T16:13:58;31.85;;;17.88;;
53287;SDS011;39172;45.550;12.072;2023-02-20T16:20:00;29.20;;;17.70;;
53287;SDS011;39172;45.550;12.072;2023-02-20T16:26:01;27.38;;;16.70;;
53287;SDS011;39172;45.550;12.072;2023-02-20T16:38:03;35.55;;;20.25;;
53287;SDS011;39172;45.550;12.072;2023-02-20T16:44:13;36.47;;;21.15;;
53287;SDS011;39172;45.550;12.072;2023-02-20T16:50:15;35.13;;;20.30;;
53287;SDS011;39172;45.550;12.072;2023-02-20T16:56:19;35.35;;;20.73;;
53287;SDS011;39172;45.550;12.072;2023-02-20T17:02:25;44.42;;;24.90;;
53287;SDS011;39172;45.550;12.072;2023-02-20T17:08:27;52.42;;;29.73;;
53287;SDS011;39172;45.550;12.072;2023-02-20T17:14:28;53.85;;;29.58;;
53287;SDS011;39172;45.550;12.072;2023-02-20T17:20:28;52.67;;;28.80;;
53287;SDS011;39172;45.550;12.072;2023-02-20T17:26:33;59.10;;;31.70;;
53287;SDS011;39172;45.550;12.072;2023-02-20T17:32:34;53.53;;;30.02;;
53287;SDS011;39172;45.550;12.072;2023-02-20T17:38:35;55.35;;;29.70;;
53287;SDS011;39172;45.550;12.072;2023-02-20T17:44:36;67.25;;;34.08;;
53287;SDS011;39172;45.550;12.072;2023-02-20T17:50:37;59.70;;;31.52;;
53287;SDS011;39172;45.550;12.072;2023-02-20T17:56:42;60.53;;;33.35;;
53287;SDS011;39172;45.550;12.072;2023-02-20T18:02:43;61.38;;;32.20;;
53287;SDS011;39172;45.550;12.072;2023-02-20T18:08:46;60.88;;;32.72;;
53287;SDS011;39172;45.550;12.072;2023-02-20T18:14:47;55.25;;;29.98;;
53287;SDS011;39172;45.550;12.072;2023-02-20T18:20:48;56.90;;;30.80;;
53287;SDS011;39172;45.550;12.072;2023-02-20T18:26:50;56.20;;;30.75;;
53287;SDS011;39172;45.550;12.072;2023-02-20T18:32:51;55.70;;;29.45;;
53287;SDS011;39172;45.550;12.072;2023-02-20T18:38:52;49.80;;;26.17;;
53287;SDS011;39172;45.550;12.072;2023-02-20T18:44:53;40.65;;;22.52;;
53287;SDS011;39172;45.550;12.072;2023-02-20T18:50:54;36.60;;;20.48;;
53287;SDS011;39172;45.550;12.072;2023-02-20T18:56:55;35.08;;;19.20;;
53287;SDS011;39172;45.550;12.072;2023-02-20T19:02:56;30.67;;;17.20;;
53287;SDS011;39172;45.550;12.072;2023-02-20T19:08:58;29.27;;;16.88;;
53287;SDS011;39172;45.550;12.072;2023-02-20T19:14:59;29.23;;;16.60;;
53287;SDS011;39172;45.550;12.072;2023-02-20T19:21:05;30.08;;;17.63;;
53287;SDS011;39172;45.550;12.072;2023-02-20T19:27:06;28.70;;;16.67;;
53287;SDS011;39172;45.550;12.072;2023-02-20T19:33:07;25.05;;;14.65;;
53287;SDS011;39172;45.550;12.072;2023-02-20T19:39:08;29.17;;;16.30;;
53287;SDS011;39172;45.550;12.072;2023-02-20T19:45:09;26.45;;;15.65;;
53287;SDS011;39172;45.550;12.072;2023-02-20T19:51:10;26.23;;;14.98;;
53287;SDS011;39172;45.550;12.072;2023-02-20T19:57:12;22.38;;;12.38;;
53287;SDS011;39172;45.550;12.072;2023-02-20T20:03:13;17.25;;;10.63;;
53287;SDS011;39172;45.550;12.072;2023-02-20T20:09:15;19.15;;;11.35;;
53287;SDS011;39172;45.550;12.072;2023-02-20T20:15:18;20.83;;;11.98;;
53287;SDS011;39172;45.550;12.072;2023-02-20T20:21:19;23.90;;;14.07;;
53287;SDS011;39172;45.550;12.072;2023-02-20T20:27:20;28.30;;;16.88;;
53287;SDS011;39172;45.550;12.072;2023-02-20T20:33:23;32.45;;;18.30;;
53287;SDS011;39172;45.550;12.072;2023-02-20T20:39:24;31.25;;;18.45;;
53287;SDS011;39172;45.550;12.072;2023-02-20T20:45:25;34.88;;;19.95;;
53287;SDS011;39172;45.550;12.072;2023-02-20T20:51:26;37.72;;;21.10;;
53287;SDS011;39172;45.550;12.072;2023-02-20T20:57:31;32.97;;;19.00;;
53287;SDS011;39172;45.550;12.072;2023-02-20T21:03:32;33.05;;;19.20;;
53287;SDS011;39172;45.550;12.072;2023-02-20T21:09:33;28.98;;;17.58;;
53287;SDS011;39172;45.550;12.072;2023-02-20T21:15:34;29.38;;;17.90;;
53287;SDS011;39172;45.550;12.072;2023-02-20T21:21:35;27.10;;;16.25;;
53287;SDS011;39172;45.550;12.072;2023-02-20T21:27:36;21.45;;;13.70;;
53287;SDS011;39172;45.550;12.072;2023-02-20T21:33:36;23.05;;;14.10;;
53287;SDS011;39172;45.550;12.072;2023-02-20T21:39:37;24.88;;;15.32;;
53287;SDS011;39172;45.550;12.072;2023-02-20T21:45:38;27.77;;;16.83;;
53287;SDS011;39172;45.550;12.072;2023-02-20T21:51:39;33.58;;;19.83;;
53287;SDS011;39172;45.550;12.072;2023-02-20T21:57:40;35.67;;;21.40;;
53287;SDS011;39172;45.550;12.072;2023-02-20T22:03:41;37.47;;;22.20;;
53287;SDS011;39172;45.550;12.072;2023-02-20T22:09:42;34.80;;;20.23;;
53287;SDS011;39172;45.550;12.072;2023-02-20T22:16:02;28.63;;;17.70;;
53287;SDS011;39172;45.550;12.072;2023-02-20T22:22:21;25.57;;;15.97;;
53287;SDS011;39172;45.550;12.072;2023-02-20T22:28:40;34.25;;;19.98;;
53287;SDS011;39172;45.550;12.072;2023-02-20T22:35:00;47.17;;;26.30;;
53287;SDS011;39172;45.550;12.072;2023-02-20T22:41:19;57.05;;;31.73;;
53287;SDS011;39172;45.550;12.072;2023-02-20T22:47:38;53.78;;;31.88;;
53287;SDS011;39172;45.550;12.072;2023-02-20T22:53:59;44.45;;;26.52;;
53287;SDS011;39172;45.550;12.072;2023-02-20T23:00:19;47.40;;;28.08;;
53287;SDS011;39172;45.550;12.072;2023-02-20T23:06:38;48.15;;;27.35;;
53287;SDS011;39172;45.550;12.072;2023-02-20T23:12:57;39.90;;;23.33;;
53287;SDS011;39172;45.550;12.072;2023-02-20T23:19:17;35.80;;;21.95;;
53287;SDS011;39172;45.550;12.072;2023-02-20T23:25:36;41.55;;;25.58;;
53287;SDS011;39172;45.550;12.072;2023-02-20T23:31:55;44.38;;;25.77;;
53287;SDS011;39172;45.550;12.072;2023-02-20T23:38:15;46.33;;;28.40;;
53287;SDS011;39172;45.550;12.072;2023-02-20T23:44:34;60.38;;;33.92;;
53287;SDS011;39172;45.550;12.072;2023-02-20T23:50:54;47.70;;;28.40;;
53287;SDS011;39172;45.550;12.072;2023-02-20T23:57:13;43.00;;;25.73;;
